sensor_id;sensor_type;location;lat;lon;timestamp;P1;durP1;ratioP1;P2;durP2;ratioP2
30519;SDS011;17300;50.374;8.006;2024-02-23T00:00:46;2.20;;;0.70;;
30519;SDS011;17300;50.374;8.006;2024-02-23T00:03:13;0.23;;;0.23;;
30519;SDS011;17300;50.374;8.006;2024-02-23T00:05:41;0.30;;;0.30;;
30519;SDS011;17300;50.374;8.006;2024-02-23T00:08:07;0.93;;;0.40;;
30519;SDS011;17300;50.374;8.006;2024-02-23T00:10:34;0.70;;;0.30;;
30519;SDS011;17300;50.374;8.006;2024-02-23T00:13:01;0.80;;;0.40;;
30519;SDS011;17300;50.374;8.006;2024-02-23T00:15:28;1.33;;;0.30;;
30519;SDS011;17300;50.374;8.006;2024-02-23T00:17:55;0.47;;;0.30;;
30519;SDS011;17300;50.374;8.006;2024-02-23T00:20:22;0.27;;;0.23;;
30519;SDS011;17300;50.374;8.006;2024-02-23T00:22:49;1.20;;;0.40;;
30519;SDS011;17300;50.374;8.006;2024-02-23T00:25:16;0.47;;;0.30;;
30519;SDS011;17300;50.374;8.006;2024-02-23T00:27:44;1.10;;;0.50;;
30519;SDS011;17300;50.374;8.006;2024-02-23T00:30:12;0.43;;;0.27;;
30519;SDS011;17300;50.374;8.006;2024-02-23T00:32:39;0.50;;;0.20;;
30519;SDS011;17300;50.374;8.006;2024-02-23T00:35:06;0.30;;;0.27;;
30519;SDS011;17300;50.374;8.006;2024-02-23T00:37:33;0.30;;;0.20;;
30519;SDS011;17300;50.374;8.006;2024-02-23T00:40:01;0.20;;;0.20;;
30519;SDS011;17300;50.374;8.006;2024-02-23T00:42:29;0.13;;;0.10;;
30519;SDS011;17300;50.374;8.006;2024-02-23T00:44:55;0.30;;;0.20;;
30519;SDS011;17300;50.374;8.006;2024-02-23T00:47:22;0.20;;;0.20;;
30519;SDS011;17300;50.374;8.006;2024-02-23T00:49:49;0.20;;;0.20;;
30519;SDS011;17300;50.374;8.006;2024-02-23T00:52:15;0.10;;;0.10;;
30519;SDS011;17300;50.374;8.006;2024-02-23T00:54:42;0.40;;;0.13;;
30519;SDS011;17300;50.374;8.006;2024-02-23T00:57:11;0.10;;;0.10;;
30519;SDS011;17300;50.374;8.006;2024-02-23T00:59:37;0.30;;;0.20;;
30519;SDS011;17300;50.374;8.006;2024-02-23T01:02:04;0.20;;;0.20;;
30519;SDS011;17300;50.374;8.006;2024-02-23T01:04:31;0.30;;;0.10;;
30519;SDS011;17300;50.374;8.006;2024-02-23T01:06:58;0.13;;;0.10;;
30519;SDS011;17300;50.374;8.006;2024-02-23T01:09:25;0.13;;;0.10;;
30519;SDS011;17300;50.374;8.006;2024-02-23T01:11:51;0.40;;;0.10;;
30519;SDS011;17300;50.374;8.006;2024-02-23T01:14:19;0.10;;;0.10;;
30519;SDS011;17300;50.374;8.006;2024-02-23T01:16:46;0.77;;;0.30;;
30519;SDS011;17300;50.374;8.006;2024-02-23T01:19:13;0.33;;;0.20;;
30519;SDS011;17300;50.374;8.006;2024-02-23T01:21:40;0.20;;;0.20;;
30519;SDS011;17300;50.374;8.006;2024-02-23T01:24:07;0.30;;;0.20;;
30519;SDS011;17300;50.374;8.006;2024-02-23T01:26:34;0.10;;;0.10;;
30519;SDS011;17300;50.374;8.006;2024-02-23T01:29:01;0.30;;;0.20;;
30519;SDS011;17300;50.374;8.006;2024-02-23T01:31:29;0.30;;;0.30;;
30519;SDS011;17300;50.374;8.006;2024-02-23T01:33:56;0.63;;;0.30;;
30519;SDS011;17300;50.374;8.006;2024-02-23T01:36:23;0.20;;;0.20;;
30519;SDS011;17300;50.374;8.006;2024-02-23T01:38:49;0.20;;;0.17;;
30519;SDS011;17300;50.374;8.006;2024-02-23T01:41:16;0.80;;;0.30;;
30519;SDS011;17300;50.374;8.006;2024-02-23T01:43:43;0.97;;;0.30;;
30519;SDS011;17300;50.374;8.006;2024-02-23T01:46:09;0.37;;;0.37;;
30519;SDS011;17300;50.374;8.006;2024-02-23T01:48:37;1.13;;;0.40;;
30519;SDS011;17300;50.374;8.006;2024-02-23T01:51:04;0.47;;;0.23;;
30519;SDS011;17300;50.374;8.006;2024-02-23T01:53:31;1.47;;;0.30;;
30519;SDS011;17300;50.374;8.006;2024-02-23T01:55:57;0.63;;;0.20;;
30519;SDS011;17300;50.374;8.006;2024-02-23T01:58:27;0.90;;;0.30;;
30519;SDS011;17300;50.374;8.006;2024-02-23T02:00:55;1.13;;;0.30;;
30519;SDS011;17300;50.374;8.006;2024-02-23T02:03:22;0.83;;;0.40;;
30519;SDS011;17300;50.374;8.006;2024-02-23T02:05:50;0.40;;;0.30;;
30519;SDS011;17300;50.374;8.006;2024-02-23T02:08:18;1.13;;;0.47;;
30519;SDS011;17300;50.374;8.006;2024-02-23T02:10:46;0.73;;;0.20;;
30519;SDS011;17300;50.374;8.006;2024-02-23T02:13:14;0.90;;;0.30;;
30519;SDS011;17300;50.374;8.006;2024-02-23T02:15:40;0.40;;;0.30;;
30519;SDS011;17300;50.374;8.006;2024-02-23T02:18:08;0.30;;;0.30;;
30519;SDS011;17300;50.374;8.006;2024-02-23T02:20:36;1.20;;;0.30;;
30519;SDS011;17300;50.374;8.006;2024-02-23T02:23:07;1.57;;;0.50;;
30519;SDS011;17300;50.374;8.006;2024-02-23T02:25:36;0.50;;;0.40;;
30519;SDS011;17300;50.374;8.006;2024-02-23T02:28:05;1.33;;;0.40;;
30519;SDS011;17300;50.374;8.006;2024-02-23T02:30:32;0.47;;;0.30;;
30519;SDS011;17300;50.374;8.006;2024-02-23T02:32:59;1.03;;;0.40;;
30519;SDS011;17300;50.374;8.006;2024-02-23T02:35:25;0.97;;;0.30;;
30519;SDS011;17300;50.374;8.006;2024-02-23T02:37:52;1.07;;;0.57;;
30519;SDS011;17300;50.374;8.006;2024-02-23T02:40:20;0.40;;;0.30;;
30519;SDS011;17300;50.374;8.006;2024-02-23T02:42:47;0.67;;;0.30;;
30519;SDS011;17300;50.374;8.006;2024-02-23T02:45:13;1.33;;;0.60;;
30519;SDS011;17300;50.374;8.006;2024-02-23T02:47:40;0.90;;;0.40;;
30519;SDS011;17300;50.374;8.006;2024-02-23T02:50:08;0.90;;;0.30;;
30519;SDS011;17300;50.374;8.006;2024-02-23T02:52:35;0.50;;;0.30;;
30519;SDS011;17300;50.374;8.006;2024-02-23T02:55:02;1.20;;;0.30;;
30519;SDS011;17300;50.374;8.006;2024-02-23T02:57:30;1.03;;;0.40;;
30519;SDS011;17300;50.374;8.006;2024-02-23T02:59:57;0.73;;;0.30;;
30519;SDS011;17300;50.374;8.006;2024-02-23T03:02:23;0.40;;;0.37;;
30519;SDS011;17300;50.374;8.006;2024-02-23T03:04:50;1.07;;;0.50;;
30519;SDS011;17300;50.374;8.006;2024-02-23T03:07:19;1.40;;;0.37;;
30519;SDS011;17300;50.374;8.006;2024-02-23T03:09:46;0.30;;;0.30;;
30519;SDS011;17300;50.374;8.006;2024-02-23T03:12:13;0.50;;;0.30;;
30519;SDS011;17300;50.374;8.006;2024-02-23T03:14:41;0.43;;;0.30;;
30519;SDS011;17300;50.374;8.006;2024-02-23T03:17:08;0.97;;;0.30;;
30519;SDS011;17300;50.374;8.006;2024-02-23T03:19:35;1.43;;;0.50;;
30519;SDS011;17300;50.374;8.006;2024-02-23T03:22:02;0.53;;;0.30;;
30519;SDS011;17300;50.374;8.006;2024-02-23T03:24:29;0.47;;;0.30;;
30519;SDS011;17300;50.374;8.006;2024-02-23T03:26:55;0.63;;;0.30;;
30519;SDS011;17300;50.374;8.006;2024-02-23T03:29:22;1.17;;;0.80;;
30519;SDS011;17300;50.374;8.006;2024-02-23T03:31:50;1.10;;;0.30;;
30519;SDS011;17300;50.374;8.006;2024-02-23T03:34:17;0.60;;;0.40;;
30519;SDS011;17300;50.374;8.006;2024-02-23T03:36:44;0.53;;;0.33;;
30519;SDS011;17300;50.374;8.006;2024-02-23T03:39:10;0.57;;;0.37;;
30519;SDS011;17300;50.374;8.006;2024-02-23T03:41:37;0.63;;;0.37;;
30519;SDS011;17300;50.374;8.006;2024-02-23T03:44:04;0.83;;;0.20;;
30519;SDS011;17300;50.374;8.006;2024-02-23T03:46:30;1.43;;;0.50;;
30519;SDS011;17300;50.374;8.006;2024-02-23T03:48:58;1.17;;;0.40;;
30519;SDS011;17300;50.374;8.006;2024-02-23T03:51:25;1.23;;;0.50;;
30519;SDS011;17300;50.374;8.006;2024-02-23T03:53:52;1.17;;;0.40;;
30519;SDS011;17300;50.374;8.006;2024-02-23T03:56:19;1.17;;;0.40;;
30519;SDS011;17300;50.374;8.006;2024-02-23T03:58:46;0.50;;;0.40;;
30519;SDS011;17300;50.374;8.006;2024-02-23T04:01:12;0.73;;;0.30;;
30519;SDS011;17300;50.374;8.006;2024-02-23T04:03:39;0.87;;;0.50;;
30519;SDS011;17300;50.374;8.006;2024-02-23T04:06:07;0.80;;;0.50;;
30519;SDS011;17300;50.374;8.006;2024-02-23T04:08:33;2.13;;;0.43;;
30519;SDS011;17300;50.374;8.006;2024-02-23T04:11:00;0.60;;;0.30;;
30519;SDS011;17300;50.374;8.006;2024-02-23T04:13:27;1.50;;;0.53;;
30519;SDS011;17300;50.374;8.006;2024-02-23T04:15:53;0.87;;;0.50;;
30519;SDS011;17300;50.374;8.006;2024-02-23T04:18:22;0.97;;;0.40;;
30519;SDS011;17300;50.374;8.006;2024-02-23T04:20:49;2.33;;;0.40;;
30519;SDS011;17300;50.374;8.006;2024-02-23T04:23:17;1.77;;;0.50;;
30519;SDS011;17300;50.374;8.006;2024-02-23T04:25:43;1.07;;;0.57;;
30519;SDS011;17300;50.374;8.006;2024-02-23T04:28:10;1.67;;;0.40;;
30519;SDS011;17300;50.374;8.006;2024-02-23T04:30:37;1.40;;;0.70;;
30519;SDS011;17300;50.374;8.006;2024-02-23T04:33:04;1.27;;;0.40;;
30519;SDS011;17300;50.374;8.006;2024-02-23T04:35:30;1.23;;;0.50;;
30519;SDS011;17300;50.374;8.006;2024-02-23T04:37:57;1.00;;;0.40;;
30519;SDS011;17300;50.374;8.006;2024-02-23T04:40:25;1.37;;;0.50;;
30519;SDS011;17300;50.374;8.006;2024-02-23T04:42:52;2.00;;;0.60;;
30519;SDS011;17300;50.374;8.006;2024-02-23T04:45:18;0.67;;;0.40;;
30519;SDS011;17300;50.374;8.006;2024-02-23T04:47:45;0.40;;;0.40;;
30519;SDS011;17300;50.374;8.006;2024-02-23T04:50:13;1.70;;;0.70;;
30519;SDS011;17300;50.374;8.006;2024-02-23T04:52:40;1.30;;;0.40;;
30519;SDS011;17300;50.374;8.006;2024-02-23T04:55:07;0.83;;;0.60;;
30519;SDS011;17300;50.374;8.006;2024-02-23T04:57:36;2.17;;;0.60;;
30519;SDS011;17300;50.374;8.006;2024-02-23T05:00:03;1.60;;;0.50;;
30519;SDS011;17300;50.374;8.006;2024-02-23T05:02:32;0.80;;;0.50;;
30519;SDS011;17300;50.374;8.006;2024-02-23T05:05:00;1.53;;;0.50;;
30519;SDS011;17300;50.374;8.006;2024-02-23T05:07:29;0.60;;;0.50;;
30519;SDS011;17300;50.374;8.006;2024-02-23T05:09:56;0.93;;;0.53;;
30519;SDS011;17300;50.374;8.006;2024-02-23T05:12:23;0.93;;;0.40;;
30519;SDS011;17300;50.374;8.006;2024-02-23T05:14:51;1.13;;;0.60;;
30519;SDS011;17300;50.374;8.006;2024-02-23T05:17:17;1.17;;;0.50;;
30519;SDS011;17300;50.374;8.006;2024-02-23T05:19:44;0.73;;;0.43;;
30519;SDS011;17300;50.374;8.006;2024-02-23T05:22:11;0.83;;;0.60;;
30519;SDS011;17300;50.374;8.006;2024-02-23T05:24:38;1.77;;;0.50;;
30519;SDS011;17300;50.374;8.006;2024-02-23T05:27:04;1.60;;;0.40;;
30519;SDS011;17300;50.374;8.006;2024-02-23T05:29:31;1.93;;;0.60;;
30519;SDS011;17300;50.374;8.006;2024-02-23T05:31:59;0.30;;;0.30;;
30519;SDS011;17300;50.374;8.006;2024-02-23T05:34:26;1.57;;;0.37;;
30519;SDS011;17300;50.374;8.006;2024-02-23T05:36:52;0.90;;;0.37;;
30519;SDS011;17300;50.374;8.006;2024-02-23T05:39:19;1.10;;;0.50;;
30519;SDS011;17300;50.374;8.006;2024-02-23T05:41:46;1.17;;;0.40;;
30519;SDS011;17300;50.374;8.006;2024-02-23T05:44:12;0.50;;;0.30;;
30519;SDS011;17300;50.374;8.006;2024-02-23T05:46:39;1.57;;;0.77;;
30519;SDS011;17300;50.374;8.006;2024-02-23T05:49:09;0.87;;;0.40;;
30519;SDS011;17300;50.374;8.006;2024-02-23T05:51:37;0.50;;;0.37;;
30519;SDS011;17300;50.374;8.006;2024-02-23T05:54:04;1.00;;;0.40;;
30519;SDS011;17300;50.374;8.006;2024-02-23T05:56:31;1.90;;;0.93;;
30519;SDS011;17300;50.374;8.006;2024-02-23T05:58:57;1.10;;;0.50;;
30519;SDS011;17300;50.374;8.006;2024-02-23T06:01:24;2.40;;;0.90;;
30519;SDS011;17300;50.374;8.006;2024-02-23T06:03:50;0.63;;;0.50;;
30519;SDS011;17300;50.374;8.006;2024-02-23T06:06:19;3.00;;;0.77;;
30519;SDS011;17300;50.374;8.006;2024-02-23T06:08:46;1.33;;;0.47;;
30519;SDS011;17300;50.374;8.006;2024-02-23T06:11:14;1.17;;;0.73;;
30519;SDS011;17300;50.374;8.006;2024-02-23T06:13:41;0.50;;;0.30;;
30519;SDS011;17300;50.374;8.006;2024-02-23T06:16:09;2.20;;;0.60;;
30519;SDS011;17300;50.374;8.006;2024-02-23T06:18:36;1.23;;;0.40;;
30519;SDS011;17300;50.374;8.006;2024-02-23T06:21:10;1.53;;;0.50;;
30519;SDS011;17300;50.374;8.006;2024-02-23T06:23:39;1.47;;;0.70;;
30519;SDS011;17300;50.374;8.006;2024-02-23T06:26:06;1.43;;;0.50;;
30519;SDS011;17300;50.374;8.006;2024-02-23T06:28:33;1.63;;;0.50;;
30519;SDS011;17300;50.374;8.006;2024-02-23T06:30:59;0.80;;;0.50;;
30519;SDS011;17300;50.374;8.006;2024-02-23T06:33:26;0.93;;;0.50;;
30519;SDS011;17300;50.374;8.006;2024-02-23T06:35:54;1.57;;;0.57;;
30519;SDS011;17300;50.374;8.006;2024-02-23T06:38:21;1.80;;;0.60;;
30519;SDS011;17300;50.374;8.006;2024-02-23T06:40:49;1.73;;;0.73;;
30519;SDS011;17300;50.374;8.006;2024-02-23T06:43:15;1.23;;;0.50;;
30519;SDS011;17300;50.374;8.006;2024-02-23T06:45:42;1.47;;;0.43;;
30519;SDS011;17300;50.374;8.006;2024-02-23T06:48:09;0.93;;;0.50;;
30519;SDS011;17300;50.374;8.006;2024-02-23T06:50:36;2.50;;;0.60;;
30519;SDS011;17300;50.374;8.006;2024-02-23T06:53:02;0.90;;;0.50;;
30519;SDS011;17300;50.374;8.006;2024-02-23T06:55:31;1.67;;;0.80;;
30519;SDS011;17300;50.374;8.006;2024-02-23T06:58:00;1.70;;;0.70;;
30519;SDS011;17300;50.374;8.006;2024-02-23T07:00:27;1.20;;;0.60;;
30519;SDS011;17300;50.374;8.006;2024-02-23T07:02:53;2.40;;;0.67;;
30519;SDS011;17300;50.374;8.006;2024-02-23T07:05:20;1.90;;;0.90;;
30519;SDS011;17300;50.374;8.006;2024-02-23T07:07:46;1.80;;;0.70;;
30519;SDS011;17300;50.374;8.006;2024-02-23T07:10:13;2.53;;;0.87;;
30519;SDS011;17300;50.374;8.006;2024-02-23T07:12:42;1.30;;;0.60;;
30519;SDS011;17300;50.374;8.006;2024-02-23T07:15:10;1.13;;;0.70;;
30519;SDS011;17300;50.374;8.006;2024-02-23T07:17:37;1.30;;;0.60;;
30519;SDS011;17300;50.374;8.006;2024-02-23T07:20:04;1.47;;;0.70;;
30519;SDS011;17300;50.374;8.006;2024-02-23T07:22:31;1.80;;;0.73;;
30519;SDS011;17300;50.374;8.006;2024-02-23T07:24:59;1.13;;;0.50;;
30519;SDS011;17300;50.374;8.006;2024-02-23T07:27:26;1.23;;;0.53;;
30519;SDS011;17300;50.374;8.006;2024-02-23T07:29:53;0.97;;;0.60;;
30519;SDS011;17300;50.374;8.006;2024-02-23T07:32:21;1.30;;;0.40;;
30519;SDS011;17300;50.374;8.006;2024-02-23T07:34:47;2.03;;;0.80;;
30519;SDS011;17300;50.374;8.006;2024-02-23T07:37:14;1.40;;;0.43;;
30519;SDS011;17300;50.374;8.006;2024-02-23T07:39:41;0.70;;;0.43;;
30519;SDS011;17300;50.374;8.006;2024-02-23T07:42:08;0.93;;;0.57;;
30519;SDS011;17300;50.374;8.006;2024-02-23T07:44:35;1.10;;;0.50;;
30519;SDS011;17300;50.374;8.006;2024-02-23T07:47:03;1.30;;;0.50;;
30519;SDS011;17300;50.374;8.006;2024-02-23T07:49:32;1.00;;;0.50;;
30519;SDS011;17300;50.374;8.006;2024-02-23T07:51:58;1.30;;;0.60;;
30519;SDS011;17300;50.374;8.006;2024-02-23T07:54:25;1.70;;;0.50;;
30519;SDS011;17300;50.374;8.006;2024-02-23T07:56:52;1.83;;;0.63;;
30519;SDS011;17300;50.374;8.006;2024-02-23T07:59:18;1.53;;;0.60;;
30519;SDS011;17300;50.374;8.006;2024-02-23T08:01:45;1.23;;;0.70;;
30519;SDS011;17300;50.374;8.006;2024-02-23T08:04:13;1.63;;;0.70;;
30519;SDS011;17300;50.374;8.006;2024-02-23T08:06:41;1.00;;;0.73;;
30519;SDS011;17300;50.374;8.006;2024-02-23T08:09:07;1.10;;;0.53;;
30519;SDS011;17300;50.374;8.006;2024-02-23T08:11:34;0.73;;;0.50;;
30519;SDS011;17300;50.374;8.006;2024-02-23T08:14:01;2.17;;;0.70;;
30519;SDS011;17300;50.374;8.006;2024-02-23T08:16:28;2.73;;;0.80;;
30519;SDS011;17300;50.374;8.006;2024-02-23T08:18:54;0.90;;;0.70;;
30519;SDS011;17300;50.374;8.006;2024-02-23T08:21:21;1.40;;;0.77;;
30519;SDS011;17300;50.374;8.006;2024-02-23T08:23:49;1.40;;;0.77;;
30519;SDS011;17300;50.374;8.006;2024-02-23T08:26:16;1.43;;;0.70;;
30519;SDS011;17300;50.374;8.006;2024-02-23T08:28:42;2.80;;;0.80;;
30519;SDS011;17300;50.374;8.006;2024-02-23T08:31:09;2.40;;;1.10;;
30519;SDS011;17300;50.374;8.006;2024-02-23T08:33:36;2.37;;;0.93;;
30519;SDS011;17300;50.374;8.006;2024-02-23T08:36:03;1.70;;;0.77;;
30519;SDS011;17300;50.374;8.006;2024-02-23T08:38:30;1.00;;;0.70;;
30519;SDS011;17300;50.374;8.006;2024-02-23T08:40:58;1.83;;;1.00;;
30519;SDS011;17300;50.374;8.006;2024-02-23T08:43:25;2.20;;;0.80;;
30519;SDS011;17300;50.374;8.006;2024-02-23T08:45:52;3.53;;;0.80;;
30519;SDS011;17300;50.374;8.006;2024-02-23T08:48:18;0.90;;;0.63;;
30519;SDS011;17300;50.374;8.006;2024-02-23T08:50:45;1.30;;;0.60;;
30519;SDS011;17300;50.374;8.006;2024-02-23T08:53:12;1.23;;;0.80;;
30519;SDS011;17300;50.374;8.006;2024-02-23T08:55:39;1.97;;;0.80;;
30519;SDS011;17300;50.374;8.006;2024-02-23T08:58:07;1.70;;;0.80;;
30519;SDS011;17300;50.374;8.006;2024-02-23T09:00:34;1.63;;;0.70;;
30519;SDS011;17300;50.374;8.006;2024-02-23T09:03:02;2.10;;;0.80;;
30519;SDS011;17300;50.374;8.006;2024-02-23T09:05:28;1.43;;;0.83;;
30519;SDS011;17300;50.374;8.006;2024-02-23T09:07:55;2.80;;;0.70;;
30519;SDS011;17300;50.374;8.006;2024-02-23T09:10:22;1.70;;;0.73;;
30519;SDS011;17300;50.374;8.006;2024-02-23T09:12:49;1.60;;;0.63;;
30519;SDS011;17300;50.374;8.006;2024-02-23T09:15:17;1.87;;;0.80;;
30519;SDS011;17300;50.374;8.006;2024-02-23T09:17:45;1.63;;;0.70;;
30519;SDS011;17300;50.374;8.006;2024-02-23T09:20:12;2.20;;;0.90;;
30519;SDS011;17300;50.374;8.006;2024-02-23T09:22:39;2.27;;;0.83;;
30519;SDS011;17300;50.374;8.006;2024-02-23T09:25:06;1.97;;;0.83;;
30519;SDS011;17300;50.374;8.006;2024-02-23T09:27:33;2.00;;;1.00;;
30519;SDS011;17300;50.374;8.006;2024-02-23T09:30:01;1.80;;;0.80;;
30519;SDS011;17300;50.374;8.006;2024-02-23T09:32:30;3.00;;;1.27;;
30519;SDS011;17300;50.374;8.006;2024-02-23T09:34:57;1.00;;;0.60;;
30519;SDS011;17300;50.374;8.006;2024-02-23T09:37:23;0.73;;;0.50;;
30519;SDS011;17300;50.374;8.006;2024-02-23T09:39:50;2.57;;;0.70;;
30519;SDS011;17300;50.374;8.006;2024-02-23T09:42:17;1.67;;;1.00;;
30519;SDS011;17300;50.374;8.006;2024-02-23T09:44:46;1.70;;;1.00;;
30519;SDS011;17300;50.374;8.006;2024-02-23T09:47:15;2.13;;;0.90;;
30519;SDS011;17300;50.374;8.006;2024-02-23T09:49:44;3.07;;;0.90;;
30519;SDS011;17300;50.374;8.006;2024-02-23T09:52:16;3.27;;;0.80;;
30519;SDS011;17300;50.374;8.006;2024-02-23T09:54:44;1.50;;;0.60;;
30519;SDS011;17300;50.374;8.006;2024-02-23T09:57:11;2.33;;;0.80;;
30519;SDS011;17300;50.374;8.006;2024-02-23T09:59:39;1.33;;;0.63;;
30519;SDS011;17300;50.374;8.006;2024-02-23T10:02:08;0.97;;;0.60;;
30519;SDS011;17300;50.374;8.006;2024-02-23T10:04:36;1.10;;;0.60;;
30519;SDS011;17300;50.374;8.006;2024-02-23T10:07:05;1.07;;;0.70;;
30519;SDS011;17300;50.374;8.006;2024-02-23T10:09:32;0.80;;;0.60;;
30519;SDS011;17300;50.374;8.006;2024-02-23T10:11:59;1.70;;;0.83;;
30519;SDS011;17300;50.374;8.006;2024-02-23T10:14:25;0.70;;;0.70;;
30519;SDS011;17300;50.374;8.006;2024-02-23T10:16:52;1.73;;;0.90;;
30519;SDS011;17300;50.374;8.006;2024-02-23T10:19:20;1.20;;;0.60;;
30519;SDS011;17300;50.374;8.006;2024-02-23T10:21:59;1.73;;;0.63;;
30519;SDS011;17300;50.374;8.006;2024-02-23T10:24:27;1.27;;;0.73;;
30519;SDS011;17300;50.374;8.006;2024-02-23T10:26:54;1.40;;;0.57;;
30519;SDS011;17300;50.374;8.006;2024-02-23T10:29:22;2.60;;;0.70;;
30519;SDS011;17300;50.374;8.006;2024-02-23T10:31:49;1.60;;;0.60;;
30519;SDS011;17300;50.374;8.006;2024-02-23T10:34:18;1.43;;;0.60;;
30519;SDS011;17300;50.374;8.006;2024-02-23T10:36:46;1.70;;;0.67;;
30519;SDS011;17300;50.374;8.006;2024-02-23T10:39:15;1.77;;;0.60;;
30519;SDS011;17300;50.374;8.006;2024-02-23T10:41:46;1.87;;;0.60;;
30519;SDS011;17300;50.374;8.006;2024-02-23T10:44:18;1.73;;;0.60;;
30519;SDS011;17300;50.374;8.006;2024-02-23T10:46:45;1.53;;;0.70;;
30519;SDS011;17300;50.374;8.006;2024-02-23T10:49:13;1.70;;;0.57;;
30519;SDS011;17300;50.374;8.006;2024-02-23T10:51:42;1.67;;;0.63;;
30519;SDS011;17300;50.374;8.006;2024-02-23T10:54:12;1.67;;;0.80;;
30519;SDS011;17300;50.374;8.006;2024-02-23T10:56:40;0.93;;;0.47;;
30519;SDS011;17300;50.374;8.006;2024-02-23T10:59:09;0.77;;;0.50;;
30519;SDS011;17300;50.374;8.006;2024-02-23T11:01:35;1.47;;;0.80;;
30519;SDS011;17300;50.374;8.006;2024-02-23T11:04:04;1.43;;;0.60;;
30519;SDS011;17300;50.374;8.006;2024-02-23T11:06:33;0.90;;;0.50;;
30519;SDS011;17300;50.374;8.006;2024-02-23T11:09:06;0.97;;;0.63;;
30519;SDS011;17300;50.374;8.006;2024-02-23T11:11:34;0.70;;;0.50;;
30519;SDS011;17300;50.374;8.006;2024-02-23T11:14:02;1.43;;;1.00;;
30519;SDS011;17300;50.374;8.006;2024-02-23T11:16:38;1.07;;;0.50;;
30519;SDS011;17300;50.374;8.006;2024-02-23T11:19:05;1.20;;;0.70;;
30519;SDS011;17300;50.374;8.006;2024-02-23T11:21:34;1.70;;;0.80;;
30519;SDS011;17300;50.374;8.006;2024-02-23T11:24:02;1.70;;;0.53;;
30519;SDS011;17300;50.374;8.006;2024-02-23T11:26:30;0.60;;;0.40;;
30519;SDS011;17300;50.374;8.006;2024-02-23T11:28:58;0.50;;;0.40;;
30519;SDS011;17300;50.374;8.006;2024-02-23T11:31:29;0.80;;;0.50;;
30519;SDS011;17300;50.374;8.006;2024-02-23T11:33:57;1.80;;;0.67;;
30519;SDS011;17300;50.374;8.006;2024-02-23T11:36:24;0.90;;;0.40;;
30519;SDS011;17300;50.374;8.006;2024-02-23T11:38:56;1.50;;;0.60;;
30519;SDS011;17300;50.374;8.006;2024-02-23T11:41:23;2.97;;;0.53;;
30519;SDS011;17300;50.374;8.006;2024-02-23T11:43:51;1.40;;;0.60;;
30519;SDS011;17300;50.374;8.006;2024-02-23T11:46:18;0.90;;;0.43;;
30519;SDS011;17300;50.374;8.006;2024-02-23T11:48:45;0.97;;;0.50;;
30519;SDS011;17300;50.374;8.006;2024-02-23T11:51:19;0.53;;;0.40;;
30519;SDS011;17300;50.374;8.006;2024-02-23T11:53:46;0.90;;;0.40;;
30519;SDS011;17300;50.374;8.006;2024-02-23T11:56:13;1.13;;;0.70;;
30519;SDS011;17300;50.374;8.006;2024-02-23T11:58:40;1.47;;;0.77;;
30519;SDS011;17300;50.374;8.006;2024-02-23T12:01:08;0.90;;;0.60;;
30519;SDS011;17300;50.374;8.006;2024-02-23T12:03:34;0.87;;;0.40;;
30519;SDS011;17300;50.374;8.006;2024-02-23T12:06:03;0.60;;;0.50;;
30519;SDS011;17300;50.374;8.006;2024-02-23T12:08:31;0.50;;;0.40;;
30519;SDS011;17300;50.374;8.006;2024-02-23T12:11:06;0.67;;;0.50;;
30519;SDS011;17300;50.374;8.006;2024-02-23T12:13:48;1.73;;;0.80;;
30519;SDS011;17300;50.374;8.006;2024-02-23T12:16:17;0.80;;;0.50;;
30519;SDS011;17300;50.374;8.006;2024-02-23T12:18:44;1.27;;;0.70;;
30519;SDS011;17300;50.374;8.006;2024-02-23T12:21:11;1.00;;;0.60;;
30519;SDS011;17300;50.374;8.006;2024-02-23T12:23:40;1.67;;;0.53;;
30519;SDS011;17300;50.374;8.006;2024-02-23T12:26:07;0.67;;;0.50;;
30519;SDS011;17300;50.374;8.006;2024-02-23T12:28:35;1.20;;;0.70;;
30519;SDS011;17300;50.374;8.006;2024-02-23T12:44:44;2.30;;;0.67;;
30519;SDS011;17300;50.374;8.006;2024-02-23T12:47:25;1.43;;;0.70;;
30519;SDS011;17300;50.374;8.006;2024-02-23T12:49:58;0.93;;;0.60;;
30519;SDS011;17300;50.374;8.006;2024-02-23T12:53:09;1.30;;;0.70;;
30519;SDS011;17300;50.374;8.006;2024-02-23T12:56:24;0.93;;;0.60;;
30519;SDS011;17300;50.374;8.006;2024-02-23T12:58:52;2.30;;;0.70;;
30519;SDS011;17300;50.374;8.006;2024-02-23T13:01:20;1.30;;;0.70;;
30519;SDS011;17300;50.374;8.006;2024-02-23T13:03:47;1.13;;;0.77;;
30519;SDS011;17300;50.374;8.006;2024-02-23T13:06:14;0.77;;;0.60;;
30519;SDS011;17300;50.374;8.006;2024-02-23T13:08:41;0.80;;;0.57;;
30519;SDS011;17300;50.374;8.006;2024-02-23T13:11:08;1.27;;;0.40;;
30519;SDS011;17300;50.374;8.006;2024-02-23T13:13:35;0.73;;;0.50;;
30519;SDS011;17300;50.374;8.006;2024-02-23T13:16:03;1.53;;;0.70;;
30519;SDS011;17300;50.374;8.006;2024-02-23T13:18:31;0.70;;;0.50;;
30519;SDS011;17300;50.374;8.006;2024-02-23T13:20:58;1.03;;;0.73;;
30519;SDS011;17300;50.374;8.006;2024-02-23T13:23:24;1.10;;;0.50;;
30519;SDS011;17300;50.374;8.006;2024-02-23T13:25:51;0.70;;;0.43;;
30519;SDS011;17300;50.374;8.006;2024-02-23T13:28:17;0.87;;;0.50;;
30519;SDS011;17300;50.374;8.006;2024-02-23T13:30:43;0.60;;;0.50;;
30519;SDS011;17300;50.374;8.006;2024-02-23T13:33:11;0.93;;;0.60;;
30519;SDS011;17300;50.374;8.006;2024-02-23T13:35:39;0.63;;;0.50;;
30519;SDS011;17300;50.374;8.006;2024-02-23T13:45:21;1.37;;;0.40;;
30519;SDS011;17300;50.374;8.006;2024-02-23T13:48:02;1.33;;;0.40;;
30519;SDS011;17300;50.374;8.006;2024-02-23T13:50:31;0.90;;;0.57;;
30519;SDS011;17300;50.374;8.006;2024-02-23T13:52:58;0.57;;;0.50;;
30519;SDS011;17300;50.374;8.006;2024-02-23T13:55:25;0.70;;;0.50;;
30519;SDS011;17300;50.374;8.006;2024-02-23T13:57:52;0.80;;;0.60;;
30519;SDS011;17300;50.374;8.006;2024-02-23T14:00:19;1.83;;;0.70;;
30519;SDS011;17300;50.374;8.006;2024-02-23T14:02:46;1.40;;;0.60;;
30519;SDS011;17300;50.374;8.006;2024-02-23T14:05:13;0.93;;;0.50;;
30519;SDS011;17300;50.374;8.006;2024-02-23T14:07:44;0.90;;;0.60;;
30519;SDS011;17300;50.374;8.006;2024-02-23T14:10:11;1.03;;;0.60;;
30519;SDS011;17300;50.374;8.006;2024-02-23T14:12:37;1.13;;;0.50;;
30519;SDS011;17300;50.374;8.006;2024-02-23T14:15:04;1.43;;;0.40;;
30519;SDS011;17300;50.374;8.006;2024-02-23T14:17:31;2.53;;;0.60;;
30519;SDS011;17300;50.374;8.006;2024-02-23T14:19:58;1.17;;;0.67;;
30519;SDS011;17300;50.374;8.006;2024-02-23T14:22:25;1.33;;;0.60;;
30519;SDS011;17300;50.374;8.006;2024-02-23T14:24:54;0.90;;;0.60;;
30519;SDS011;17300;50.374;8.006;2024-02-23T14:27:21;1.20;;;0.60;;
30519;SDS011;17300;50.374;8.006;2024-02-23T14:29:47;1.77;;;0.70;;
30519;SDS011;17300;50.374;8.006;2024-02-23T14:32:15;0.97;;;0.63;;
30519;SDS011;17300;50.374;8.006;2024-02-23T14:34:43;1.00;;;0.60;;
30519;SDS011;17300;50.374;8.006;2024-02-23T14:37:10;2.50;;;0.60;;
30519;SDS011;17300;50.374;8.006;2024-02-23T14:39:37;1.43;;;0.50;;
30519;SDS011;17300;50.374;8.006;2024-02-23T14:42:05;1.33;;;0.67;;
30519;SDS011;17300;50.374;8.006;2024-02-23T14:44:33;1.03;;;0.60;;
30519;SDS011;17300;50.374;8.006;2024-02-23T14:47:00;0.80;;;0.50;;
30519;SDS011;17300;50.374;8.006;2024-02-23T14:49:27;0.60;;;0.60;;
30519;SDS011;17300;50.374;8.006;2024-02-23T14:51:54;1.07;;;0.50;;
30519;SDS011;17300;50.374;8.006;2024-02-23T14:54:20;1.40;;;0.60;;
30519;SDS011;17300;50.374;8.006;2024-02-23T14:56:47;1.00;;;0.50;;
30519;SDS011;17300;50.374;8.006;2024-02-23T14:59:15;1.33;;;0.60;;
30519;SDS011;17300;50.374;8.006;2024-02-23T15:01:42;1.20;;;0.60;;
30519;SDS011;17300;50.374;8.006;2024-02-23T15:04:08;0.60;;;0.60;;
30519;SDS011;17300;50.374;8.006;2024-02-23T15:06:35;1.07;;;0.60;;
30519;SDS011;17300;50.374;8.006;2024-02-23T15:09:02;0.50;;;0.40;;
30519;SDS011;17300;50.374;8.006;2024-02-23T15:11:29;1.10;;;0.60;;